Sunny Point Military Ocean T, North Carolina
Current Conditions -  °F | °C
As of 2:35 PM on Monday 22 Dec 2014 (Local Time) from KSUT Reporting Station
Light Rain Light Rain  
Wind Chill: 42°   Ceiling: 600
Heat Index: 47°   Visibility: 10mi
Dew Point: 46°   Wind: 13mph
Humidity: 93%   Direction: 350°N
Pressure: 29.98"   Gusts: NA
Location:  33.9216°N, 78.1244°W
Report Text: KSUT 221935Z AUTO 35011KT 10SM -RA OVC006 09/08 A2998 RMK AO2 T00860076
Loading
Personal Weather Stations






























Interactive Weather Map New forecast layout! Learn more

10-Day Weather Forecast

Advertisements
Track Severe Weather on mobile